X  Kiinni Metar Aviation säätiedot        LFLS AVIGNON
Lämpötila
20°C Lämpötila
19°C Kastepiste
94% Kosteus



Tuuli
6 KM/T
3 MPH
1 M/S
3 KTS



-1°
VRB
Nykyiset olosuhteet

Mostly Cloudy with Light Rain Enimmäkseen pilvistä , kevyt Sade
Paine 1015 (hPa) - 29.96 (inHg)
Näkyvyys 6 (maili) - 9 (km)
Lentokenttä
Lentokentän koodi LFLS

Sijainti: AVIGNON
Etäisyys: 165 (km)

Metar:
METAR LFLS 160300Z AUTO VRB03KT 9000 -RA FEW024/// SCT080/// BKN110/// //////CB 20/19 Q1016 TEMPO SHRA

Aika: 16-07-2024 05:00 CEST